Stations météo

réclame
Mon MeteoGroup
Sumburgh, Grande-Bretagne (3003): Température de l'air & dewpoint: 15.09.2018 22:00:00 - 21.09.2018 22:00:00 (BST)Sumburgh, Grande-Bretagne (3003): Vitesse du vent: 15.09.2018 22:00:00 - 21.09.2018 22:00:00 (BST)Sumburgh, Grande-Bretagne (3003): Direction du vent: 15.09.2018 22:00:00 - 21.09.2018 22:00:00 (BST)Sumburgh, Grande-Bretagne (3003): visibility: 15.09.2018 22:00:00 - 21.09.2018 22:00:00 (BST)
Date & Time tt [°C] td [°C] ff [km/h] ff [knt] dd vv [km]
21.09.2018 22:00:00 10,0 4,0 41 22 WNW 10
21.09.2018 21:00:00 10,0 5,0 44 24 WNW 10
21.09.2018 20:00:00 10,0 4,0 48 26 WNW 10
21.09.2018 19:00:00 10,0 3,0 52 28 WNW 10
21.09.2018 18:00:00 10,0 4,0 48 26 WNW 10
21.09.2018 17:00:00 10,0 3,0 50 27 NW 10
21.09.2018 16:00:00 11,0 4,0 44 24 NW 10
21.09.2018 15:00:00 10,0 5,0 48 26 NW 10
21.09.2018 14:00:00 9,0 6,0 35 19 NNW 10
21.09.2018 13:00:00 10,0 6,0 37 20 NNW 10
21.09.2018 12:00:00 10,0 6,0 34 18 NNW 10
21.09.2018 11:00:00 10,0 4,0 29 16 N 10
21.09.2018 10:00:00 9,0 4,0 35 19 N 10
21.09.2018 09:00:00 - - - - - -
21.09.2018 08:00:00 8,0 5,0 21 11 N 10
21.09.2018 07:00:00 8,0 5,0 22 12 N 10
21.09.2018 06:00:00 8,0 5,0 18 10 N 10
21.09.2018 05:00:00 8,0 6,0 16 9 N 10
21.09.2018 04:00:00 8,0 6,0 11 6 NNE 10
21.09.2018 03:00:00 8,0 6,0 13 7 N 10
21.09.2018 02:00:00 8,0 6,0 9 5 N 10
21.09.2018 01:00:00 7,0 5,0 8 4 N 10
21.09.2018 00:00:00 8,0 6,0 8 4 N 10
20.09.2018 23:00:00 9,0 6,0 4 2 NNW 10
20.09.2018 22:00:00 9,0 7,0 4 2 NNW 10
20.09.2018 21:00:00 11,0 8,0 15 8 W 10
20.09.2018 20:00:00 11,0 9,0 13 7 W 10
20.09.2018 19:00:00 11,0 8,0 15 8 W 10
20.09.2018 18:00:00 11,0 8,0 21 11 W 10
20.09.2018 17:00:00 12,0 8,0 29 16 W 10
20.09.2018 16:00:00 12,0 9,0 39 21 W 10
20.09.2018 15:00:00 12,0 9,0 46 25 W 10
20.09.2018 14:00:00 12,0 10,0 55 30 WSW 9
20.09.2018 13:00:00 11,0 9,0 57 31 SW 7
20.09.2018 12:00:00 11,0 8,0 61 33 SW 9
20.09.2018 11:00:00 11,0 7,0 63 34 SW 10
20.09.2018 10:00:00 12,0 7,0 54 29 SW 10
20.09.2018 09:00:00 12,0 7,0 59 32 SW 10
20.09.2018 08:00:00 11,0 7,0 57 31 SW 10
20.09.2018 07:00:00 11,0 7,0 61 33 SW 10
20.09.2018 06:00:00 11,0 8,0 55 30 SW 10
20.09.2018 05:00:00 11,0 8,0 55 30 SW 10
20.09.2018 04:00:00 11,0 8,0 57 31 SW 10
20.09.2018 03:00:00 11,0 8,0 54 29 SW 9
20.09.2018 02:00:00 11,0 8,0 57 31 SW 10
20.09.2018 01:00:00 11,0 8,0 57 31 SW 9
20.09.2018 00:00:00 11,0 9,0 57 31 WSW 2,4
19.09.2018 23:00:00 11,0 9,0 74 40 WSW 10
19.09.2018 22:00:00 11,0 9,0 72 39 WSW 4,1
19.09.2018 21:00:00 11,0 9,0 59 32 W 10
19.09.2018 20:00:00 11,0 9,0 55 30 W 7
19.09.2018 19:00:00 11,0 9,0 46 25 W 10
19.09.2018 18:00:00 12,0 9,0 54 29 W 10
19.09.2018 17:00:00 13,0 10,0 63 34 SSW 9
19.09.2018 16:00:00 13,0 11,0 61 33 S 7
19.09.2018 15:00:00 11,0 11,0 46 25 E 4,5
19.09.2018 14:00:00 9,0 8,0 28 15 ESE 10
19.09.2018 13:00:00 10,0 8,0 50 27 S 7
19.09.2018 12:00:00 12,0 9,0 44 24 S 10
19.09.2018 11:00:00 12,0 9,0 31 17 S 10
19.09.2018 10:00:00 13,0 9,0 28 15 SSW 10
19.09.2018 09:00:00 - - - - - -
19.09.2018 08:00:00 12,0 8,0 39 21 SW 10
19.09.2018 07:00:00 11,0 8,0 37 20 WSW 10
19.09.2018 06:00:00 11,0 9,0 41 22 SSW 10
19.09.2018 05:00:00 13,0 10,0 22 12 SSW 10
19.09.2018 04:00:00 12,0 11,0 22 12 S 10
19.09.2018 03:00:00 13,0 11,0 22 12 S 10
19.09.2018 02:00:00 12,0 12,0 21 11 S 9
19.09.2018 01:00:00 12,0 12,0 22 12 SSW 10
19.09.2018 00:00:00 12,0 11,0 24 13 SW 10
18.09.2018 23:00:00 12,0 12,0 24 13 SW 10
18.09.2018 22:00:00 12,0 11,0 24 13 WSW 10
18.09.2018 21:00:00 12,0 11,0 18 10 WSW 10
18.09.2018 20:00:00 12,0 11,0 16 9 WSW 10
18.09.2018 19:00:00 12,0 12,0 13 7 WSW 6
18.09.2018 18:00:00 12,0 12,0 8 4 W 6
18.09.2018 17:00:00 13,0 12,0 8 4 WSW 1,0
18.09.2018 16:00:00 13,0 13,0 4 2 S 4,0
18.09.2018 15:00:00 13,0 13,0 9 5 ESE 3,5
18.09.2018 14:00:00 13,0 13,0 5 3 E 6
18.09.2018 13:00:00 13,0 13,0 0 0 N 10
18.09.2018 12:00:00 12,0 12,0 4 2 W 9
18.09.2018 11:00:00 13,0 12,0 2 1 SSW 9
18.09.2018 10:00:00 12,0 12,0 9 5 SW 8
18.09.2018 09:00:00 12,0 12,0 13 7 WSW 1,0
18.09.2018 08:00:00 13,0 13,0 15 8 SSW 3,5
18.09.2018 07:00:00 13,0 12,0 18 10 SW 9
18.09.2018 06:00:00 13,0 13,0 22 12 SSW 10
18.09.2018 05:00:00 14,0 13,0 22 12 SSW 9
18.09.2018 04:00:00 13,0 13,0 24 13 SSW 1,8
18.09.2018 03:00:00 14,0 13,0 31 17 SSW 7
18.09.2018 02:00:00 14,0 13,0 39 21 SSW 3,7
18.09.2018 01:00:00 13,0 13,0 34 18 S 2,7
18.09.2018 00:00:00 13,0 12,0 26 14 S 3,7
17.09.2018 23:00:00 12,0 11,0 28 15 SE 10
17.09.2018 22:00:00 12,0 11,0 24 13 SE 4,7
17.09.2018 21:00:00 12,0 11,0 18 10 S 10
17.09.2018 20:00:00 12,0 11,0 16 9 SSE 7
17.09.2018 19:00:00 12,0 11,0 18 10 SSE 7
17.09.2018 18:00:00 12,0 11,0 21 11 S 7
17.09.2018 17:00:00 12,0 11,0 24 13 S 10
17.09.2018 16:00:00 12,0 11,0 21 11 S 8
17.09.2018 15:00:00 12,0 11,0 22 12 S 10
17.09.2018 14:00:00 13,0 11,0 15 8 S 10
17.09.2018 13:00:00 13,0 10,0 15 8 SSW 10
17.09.2018 12:00:00 13,0 10,0 24 13 SW 10
17.09.2018 11:00:00 12,0 10,0 29 16 SW 10
17.09.2018 10:00:00 12,0 10,0 29 16 SW 10
17.09.2018 09:00:00 12,0 10,0 28 15 SW 10
17.09.2018 08:00:00 11,0 10,0 29 16 SW 10
17.09.2018 07:00:00 11,0 8,0 35 19 SW 9
17.09.2018 06:00:00 11,0 9,0 35 19 WSW 10
17.09.2018 05:00:00 11,0 9,0 35 19 SW 10
17.09.2018 04:00:00 11,0 9,0 39 21 SW 10
17.09.2018 03:00:00 11,0 8,0 39 21 SW 10
17.09.2018 02:00:00 11,0 8,0 37 20 SW 10
17.09.2018 01:00:00 11,0 9,0 41 22 SW 5
17.09.2018 00:00:00 11,0 9,0 31 17 WSW 10
16.09.2018 23:00:00 12,0 8,0 42 23 WSW 10
16.09.2018 22:00:00 12,0 8,0 37 20 WSW 10
16.09.2018 21:00:00 12,0 8,0 37 20 WSW 10
16.09.2018 20:00:00 11,0 7,0 44 24 W 10
16.09.2018 19:00:00 12,0 8,0 44 24 W 10
16.09.2018 18:00:00 12,0 6,0 54 29 W 10
16.09.2018 17:00:00 12,0 7,0 52 28 W 10
16.09.2018 16:00:00 12,0 8,0 59 32 W 10
16.09.2018 15:00:00 13,0 10,0 63 34 W 9
16.09.2018 14:00:00 13,0 11,0 65 35 WSW 10
16.09.2018 13:00:00 13,0 11,0 68 37 WSW 7
16.09.2018 12:00:00 13,0 11,0 57 31 SW 7
16.09.2018 11:00:00 13,0 12,0 29 16 S 10
16.09.2018 10:00:00 13,0 12,0 29 16 S 6
16.09.2018 09:00:00 12,0 11,0 37 20 SSE 10
16.09.2018 08:00:00 12,0 11,0 35 19 SSE 3,3
16.09.2018 07:00:00 12,0 11,0 37 20 SSE 10
16.09.2018 06:00:00 12,0 11,0 37 20 SSE 10
16.09.2018 05:00:00 12,0 11,0 29 16 SSE 10
16.09.2018 04:00:00 12,0 11,0 29 16 S 10
16.09.2018 03:00:00 12,0 11,0 34 18 S 10
16.09.2018 02:00:00 12,0 11,0 28 15 SSE 10
16.09.2018 01:00:00 12,0 10,0 26 14 SSE 10
16.09.2018 00:00:00 12,0 8,0 18 10 SSE 10
15.09.2018 23:00:00 12,0 8,0 24 13 S 10
15.09.2018 22:00:00 12,0 8,0 22 12 S 10

tt = Température de l'air
td = dewpoint
ff = Vitesse du vent
dd = Direction du vent
vv = visibility

stations d'obs. à proximité